The Florida Keys Marathon Airport
KMTH : now visible

Airfield :











YOU CAN JOIN US ON...

 
LOGIN :

Register | Disclaimer

   EN    FR    IT 

 









Legend :    VFR   Marginal VFR   IFR   Intensive IFR   Very Intensive IFR
Visi :
Ceiling :
>= 8 km
>= 3000ft
5 to 8 km
1000 to 3000 ft
1500m to 5 km
500 to 1000 ft
800 to 1500m
200 to 500 ft
< 800m
< 200 ft
Symbols :   Thunderstorms  Fog  Heavy snow  Heavy precipitations  Wind > 20 kt






- Airport Elevation : 5 ft


KMTH - The Florida Keys Marathon

CURRENT METAR :
  • 280953Z AUTO 36010KT 10SM OVC040 15/09 A3018 RMK AO2 SLP220 T01500094

EXPIRED METARs :
  • 280853Z AUTO 02012G18KT 10SM BKN038 OVC044 16/10 A3017 RMK AO2 SLP216 T01560100 56010
  • 280753Z AUTO 02010KT 10SM OVC043 16/10 A3017 RMK AO2 SLP217 T01560100

TAF KMTH
Valid from the 28 at 08:00 until the 29 at 06:00 UTC


280813Z 2808/2906 02012KT P6SM SCT035 BKN045
FM281900 34012G18KT P6SM SKC



MET'MAP, your aeronautical weather chart ! - Copyright ORBIFLY December 2007 - Disclaimer

ORBIFLY MET'MAP TEAM :

Programming & Development : Alexandra Zaïnal
Concept & original design : Baudouin d'Aumeries
Assistance for programming : Marc-Olivier Méhu
Technical & hardware support : Manuel Goepfert

Contact : metmap@orbifly.com




SOURCES & CREDITS :

   NOAA       Earth
Advisory